Kiripotib Landing Site

Jump to: basic info | weather | comments

Related pages: nearby airports | nearby navaids

Basic information (top)

Location: lon -23.328300, lat 17.946400, elev 4,475 ft / 1,364 m msl
Status: small_airport

Weather (top)

Current conditions for Hosea Kutako International Airport 57nm (106km) NNW (rec'd 2014/10/31 23:00Z):

FYWH 312300Z AUTO /////KT //// // ////// ///// Q////

Airport forecast for Hosea Kutako International Airport 57nm (106km) NNW (rec'd 2014/10/31 06:18Z):

TAF FYWH 310400Z 3106/0112 06005KT CAVOK 
      BECMG 3110/3112 33008KT 9999 SCT045TCU PROB30 
      TEMPO 3113/3115 -TSRA FEW030CB SCT045TCU 
      BECMG 3118/3120 25007KT NSC

Latest comments (top)

More details: Once can also land in the nearby salt ... [read]

Kiripotib Landing Strip Details: GPS location: S 23° 19' 50'' E 17° ... [read]

More... (top)

See also NOTAMs and nearby airports and navaids, or visit the Kiripotib Landing Site page at the main OurAirports website..